sensor_id;sensor_type;location;lat;lon;timestamp;pressure;altitude;pressure_sealevel;temperature;humidity
12785;BME280;6456;42.680;23.260;2022-09-09T00:00:06;94788.31;;;19.10;89.81
12785;BME280;6456;42.680;23.260;2022-09-09T00:02:38;94845.22;;;19.31;91.26
12785;BME280;6456;42.680;23.260;2022-09-09T00:05:16;94777.00;;;18.88;91.44
12785;BME280;6456;42.680;23.260;2022-09-09T00:07:47;94865.03;;;19.45;92.20
12785;BME280;6456;42.680;23.260;2022-09-09T00:10:19;94856.22;;;19.45;91.63
12785;BME280;6456;42.680;23.260;2022-09-09T00:12:57;94726.25;;;18.63;91.92
12785;BME280;6456;42.680;23.260;2022-09-09T00:15:33;94814.16;;;19.10;91.56
12785;BME280;6456;42.680;23.260;2022-09-09T00:18:15;94753.44;;;18.65;92.14
12785;BME280;6456;42.680;23.260;2022-09-09T00:20:49;94789.84;;;19.01;92.27
12785;BME280;6456;42.680;23.260;2022-09-09T00:23:24;94739.63;;;18.73;92.75
12785;BME280;6456;42.680;23.260;2022-09-09T00:25:57;94821.72;;;19.28;93.58
12785;BME280;6456;42.680;23.260;2022-09-09T00:28:27;94765.81;;;18.96;94.09
12785;BME280;6456;42.680;23.260;2022-09-09T00:31:01;94797.34;;;19.09;95.24
12785;BME280;6456;42.680;23.260;2022-09-09T00:33:36;94772.69;;;18.77;95.63
12785;BME280;6456;42.680;23.260;2022-09-09T00:36:12;94773.25;;;18.89;96.09
12785;BME280;6456;42.680;23.260;2022-09-09T00:38:43;94780.75;;;18.92;96.31
12785;BME280;6456;42.680;23.260;2022-09-09T00:41:18;94770.28;;;18.76;97.04
12785;BME280;6456;42.680;23.260;2022-09-09T00:43:56;94806.94;;;19.05;97.93
12785;BME280;6456;42.680;23.260;2022-09-09T00:46:37;94779.06;;;18.71;98.47
12785;BME280;6456;42.680;23.260;2022-09-09T00:49:17;94850.47;;;19.16;97.89
12785;BME280;6456;42.680;23.260;2022-09-09T00:51:50;94787.34;;;18.80;97.65
12785;BME280;6456;42.680;23.260;2022-09-09T00:54:42;94792.66;;;18.75;97.95
12785;BME280;6456;42.680;23.260;2022-09-09T00:57:17;94799.06;;;18.74;98.33
12785;BME280;6456;42.680;23.260;2022-09-09T00:59:51;94762.97;;;18.51;98.84
12785;BME280;6456;42.680;23.260;2022-09-09T01:02:27;94797.97;;;18.70;98.53
12785;BME280;6456;42.680;23.260;2022-09-09T01:05:01;94841.09;;;19.03;98.85
12785;BME280;6456;42.680;23.260;2022-09-09T01:07:29;94767.38;;;18.40;99.84
12785;BME280;6456;42.680;23.260;2022-09-09T01:09:58;94818.00;;;18.77;99.80
12785;BME280;6456;42.680;23.260;2022-09-09T01:12:33;94798.44;;;18.62;99.63
12785;BME280;6456;42.680;23.260;2022-09-09T01:15:09;94796.59;;;18.62;99.89
12785;BME280;6456;42.680;23.260;2022-09-09T01:17:46;94850.88;;;18.93;100.00
12785;BME280;6456;42.680;23.260;2022-09-09T01:20:20;94822.78;;;18.75;100.00
12785;BME280;6456;42.680;23.260;2022-09-09T01:23:04;94823.31;;;18.77;100.00
12785;BME280;6456;42.680;23.260;2022-09-09T01:26:13;94790.97;;;18.59;99.82
12785;BME280;6456;42.680;23.260;2022-09-09T01:28:44;94811.56;;;18.68;99.56
12785;BME280;6456;42.680;23.260;2022-09-09T01:31:17;94819.53;;;18.63;99.49
12785;BME280;6456;42.680;23.260;2022-09-09T01:33:46;94760.09;;;18.26;99.15
12785;BME280;6456;42.680;23.260;2022-09-09T01:36:26;94849.78;;;18.84;99.03
12785;BME280;6456;42.680;23.260;2022-09-09T01:38:56;94809.00;;;18.46;98.63
12785;BME280;6456;42.680;23.260;2022-09-09T01:41:25;94858.53;;;18.79;98.36
12785;BME280;6456;42.680;23.260;2022-09-09T01:43:53;94764.78;;;18.14;97.79
12785;BME280;6456;42.680;23.260;2022-09-09T01:46:22;94798.22;;;18.31;97.53
12785;BME280;6456;42.680;23.260;2022-09-09T01:48:50;94851.50;;;18.63;97.52
12785;BME280;6456;42.680;23.260;2022-09-09T01:51:18;94834.34;;;18.49;97.13
12785;BME280;6456;42.680;23.260;2022-09-09T01:53:45;94761.53;;;18.07;96.23
12785;BME280;6456;42.680;23.260;2022-09-09T01:56:25;94843.75;;;18.62;96.13
12785;BME280;6456;42.680;23.260;2022-09-09T01:59:05;94855.28;;;18.72;94.79
12785;BME280;6456;42.680;23.260;2022-09-09T02:01:45;94800.09;;;18.31;93.93
12785;BME280;6456;42.680;23.260;2022-09-09T02:04:24;94764.25;;;18.12;96.66
12785;BME280;6456;42.680;23.260;2022-09-09T02:06:56;94783.50;;;18.24;98.09
12785;BME280;6456;42.680;23.260;2022-09-09T02:09:25;94726.28;;;17.89;98.43
12785;BME280;6456;42.680;23.260;2022-09-09T02:11:57;94736.13;;;17.89;98.46
12785;BME280;6456;42.680;23.260;2022-09-09T02:14:30;94844.84;;;18.66;98.74
12785;BME280;6456;42.680;23.260;2022-09-09T02:17:03;94830.91;;;18.53;99.40
12785;BME280;6456;42.680;23.260;2022-09-09T02:19:36;94801.72;;;18.37;99.24
12785;BME280;6456;42.680;23.260;2022-09-09T02:22:07;94763.94;;;18.03;99.33
12785;BME280;6456;42.680;23.260;2022-09-09T02:24:39;94834.91;;;18.51;100.00
12785;BME280;6456;42.680;23.260;2022-09-09T02:27:08;94829.44;;;18.36;100.00
12785;BME280;6456;42.680;23.260;2022-09-09T02:29:39;94799.91;;;18.06;100.00
12785;BME280;6456;42.680;23.260;2022-09-09T02:32:10;94825.03;;;18.20;100.00
12785;BME280;6456;42.680;23.260;2022-09-09T02:34:41;94797.66;;;17.92;100.00
12785;BME280;6456;42.680;23.260;2022-09-09T02:37:10;94857.66;;;18.37;100.00
12785;BME280;6456;42.680;23.260;2022-09-09T02:39:38;94811.50;;;17.94;100.00
12785;BME280;6456;42.680;23.260;2022-09-09T02:42:05;94869.53;;;18.24;100.00
12785;BME280;6456;42.680;23.260;2022-09-09T02:44:34;94817.53;;;17.85;100.00
12785;BME280;6456;42.680;23.260;2022-09-09T02:47:16;94813.03;;;17.85;100.00
12785;BME280;6456;42.680;23.260;2022-09-09T02:49:57;94761.63;;;17.53;100.00
12785;BME280;6456;42.680;23.260;2022-09-09T02:52:33;94761.09;;;17.56;100.00
12785;BME280;6456;42.680;23.260;2022-09-09T02:55:09;94807.75;;;17.90;100.00
12785;BME280;6456;42.680;23.260;2022-09-09T02:57:39;94790.34;;;17.78;100.00
12785;BME280;6456;42.680;23.260;2022-09-09T03:00:08;94775.03;;;17.63;99.37
12785;BME280;6456;42.680;23.260;2022-09-09T03:02:37;94733.41;;;17.25;100.00
12785;BME280;6456;42.680;23.260;2022-09-09T03:05:06;94798.28;;;17.73;100.00
12785;BME280;6456;42.680;23.260;2022-09-09T03:07:33;94800.38;;;17.71;100.00
12785;BME280;6456;42.680;23.260;2022-09-09T03:10:00;94755.06;;;17.39;100.00
12785;BME280;6456;42.680;23.260;2022-09-09T03:12:27;94845.88;;;17.96;100.00
12785;BME280;6456;42.680;23.260;2022-09-09T03:14:54;94789.03;;;17.54;100.00
12785;BME280;6456;42.680;23.260;2022-09-09T03:17:21;94879.00;;;18.10;100.00
12785;BME280;6456;42.680;23.260;2022-09-09T03:19:49;94773.69;;;17.61;100.00
12785;BME280;6456;42.680;23.260;2022-09-09T03:22:19;94839.25;;;17.99;100.00
12785;BME280;6456;42.680;23.260;2022-09-09T03:24:47;94859.63;;;18.15;100.00
12785;BME280;6456;42.680;23.260;2022-09-09T03:27:13;94776.06;;;17.62;100.00
12785;BME280;6456;42.680;23.260;2022-09-09T03:29:41;94854.78;;;18.12;100.00
12785;BME280;6456;42.680;23.260;2022-09-09T03:32:08;94753.56;;;17.48;100.00
12785;BME280;6456;42.680;23.260;2022-09-09T03:34:36;94801.47;;;17.75;100.00
12785;BME280;6456;42.680;23.260;2022-09-09T03:37:07;94790.25;;;17.68;100.00
12785;BME280;6456;42.680;23.260;2022-09-09T03:39:33;94784.88;;;17.63;100.00
12785;BME280;6456;42.680;23.260;2022-09-09T03:42:01;94755.56;;;17.36;100.00
12785;BME280;6456;42.680;23.260;2022-09-09T03:44:29;94747.56;;;17.36;100.00
12785;BME280;6456;42.680;23.260;2022-09-09T03:46:56;94862.72;;;18.07;100.00
12785;BME280;6456;42.680;23.260;2022-09-09T03:49:26;94733.13;;;17.27;100.00
12785;BME280;6456;42.680;23.260;2022-09-09T03:51:54;94856.44;;;17.86;100.00
12785;BME280;6456;42.680;23.260;2022-09-09T03:54:23;94812.72;;;17.55;100.00
12785;BME280;6456;42.680;23.260;2022-09-09T03:56:50;94804.50;;;17.57;100.00
12785;BME280;6456;42.680;23.260;2022-09-09T03:59:17;94815.88;;;17.52;100.00
12785;BME280;6456;42.680;23.260;2022-09-09T04:01:44;94815.81;;;17.47;100.00
12785;BME280;6456;42.680;23.260;2022-09-09T04:04:12;94824.34;;;17.49;100.00
12785;BME280;6456;42.680;23.260;2022-09-09T04:06:39;94818.16;;;17.44;100.00
12785;BME280;6456;42.680;23.260;2022-09-09T04:09:06;94802.13;;;17.39;100.00
12785;BME280;6456;42.680;23.260;2022-09-09T04:11:34;94776.19;;;17.24;100.00
12785;BME280;6456;42.680;23.260;2022-09-09T04:14:02;94847.44;;;17.65;100.00
12785;BME280;6456;42.680;23.260;2022-09-09T04:16:29;94865.16;;;17.81;100.00
12785;BME280;6456;42.680;23.260;2022-09-09T04:18:57;94825.94;;;17.50;100.00
12785;BME280;6456;42.680;23.260;2022-09-09T04:21:29;94836.69;;;17.55;100.00
12785;BME280;6456;42.680;23.260;2022-09-09T04:23:56;94863.59;;;17.85;100.00
12785;BME280;6456;42.680;23.260;2022-09-09T04:26:23;94865.19;;;17.86;100.00
12785;BME280;6456;42.680;23.260;2022-09-09T04:28:52;94830.38;;;17.66;100.00
12785;BME280;6456;42.680;23.260;2022-09-09T04:31:20;94876.81;;;17.75;100.00
12785;BME280;6456;42.680;23.260;2022-09-09T04:33:48;94831.72;;;17.42;100.00
12785;BME280;6456;42.680;23.260;2022-09-09T04:36:15;94875.69;;;17.71;100.00
12785;BME280;6456;42.680;23.260;2022-09-09T04:38:43;94875.09;;;17.64;100.00
12785;BME280;6456;42.680;23.260;2022-09-09T04:41:10;94857.88;;;17.50;100.00
12785;BME280;6456;42.680;23.260;2022-09-09T04:43:38;94823.72;;;17.42;100.00
12785;BME280;6456;42.680;23.260;2022-09-09T04:46:07;94866.66;;;17.72;100.00
12785;BME280;6456;42.680;23.260;2022-09-09T04:48:33;94876.09;;;17.85;100.00
12785;BME280;6456;42.680;23.260;2022-09-09T04:51:02;94852.09;;;17.80;100.00
12785;BME280;6456;42.680;23.260;2022-09-09T04:53:54;94769.72;;;17.42;100.00
12785;BME280;6456;42.680;23.260;2022-09-09T04:56:20;94799.97;;;17.57;100.00
12785;BME280;6456;42.680;23.260;2022-09-09T04:58:54;94839.66;;;17.85;100.00
12785;BME280;6456;42.680;23.260;2022-09-09T05:01:23;94801.88;;;17.62;100.00
12785;BME280;6456;42.680;23.260;2022-09-09T05:03:50;94790.09;;;17.53;100.00
12785;BME280;6456;42.680;23.260;2022-09-09T05:06:19;94830.09;;;17.89;100.00
12785;BME280;6456;42.680;23.260;2022-09-09T05:08:46;94771.56;;;17.63;100.00
12785;BME280;6456;42.680;23.260;2022-09-09T05:11:19;94833.47;;;18.12;100.00
12785;BME280;6456;42.680;23.260;2022-09-09T05:13:48;94837.22;;;18.11;100.00
12785;BME280;6456;42.680;23.260;2022-09-09T05:16:16;94865.06;;;18.30;100.00
12785;BME280;6456;42.680;23.260;2022-09-09T05:18:45;94792.31;;;17.92;100.00
12785;BME280;6456;42.680;23.260;2022-09-09T05:21:13;94828.78;;;18.24;100.00
12785;BME280;6456;42.680;23.260;2022-09-09T05:23:41;94760.28;;;17.82;100.00
12785;BME280;6456;42.680;23.260;2022-09-09T05:26:12;94818.34;;;18.17;100.00
12785;BME280;6456;42.680;23.260;2022-09-09T05:28:39;94827.50;;;18.31;100.00
12785;BME280;6456;42.680;23.260;2022-09-09T05:31:08;94847.13;;;18.47;100.00
12785;BME280;6456;42.680;23.260;2022-09-09T05:33:37;94799.44;;;18.19;100.00
12785;BME280;6456;42.680;23.260;2022-09-09T05:36:09;94799.53;;;18.29;100.00
12785;BME280;6456;42.680;23.260;2022-09-09T05:38:39;94830.66;;;18.55;100.00
12785;BME280;6456;42.680;23.260;2022-09-09T05:41:07;94817.56;;;18.48;100.00
12785;BME280;6456;42.680;23.260;2022-09-09T05:43:34;94857.91;;;18.67;100.00
12785;BME280;6456;42.680;23.260;2022-09-09T05:46:04;94866.22;;;18.71;100.00
12785;BME280;6456;42.680;23.260;2022-09-09T05:48:32;94862.16;;;18.63;100.00
12785;BME280;6456;42.680;23.260;2022-09-09T05:51:00;94872.06;;;18.68;100.00
12785;BME280;6456;42.680;23.260;2022-09-09T05:53:30;94827.44;;;18.53;100.00
12785;BME280;6456;42.680;23.260;2022-09-09T05:56:00;94858.53;;;18.79;100.00
12785;BME280;6456;42.680;23.260;2022-09-09T05:58:29;94861.53;;;18.88;100.00
12785;BME280;6456;42.680;23.260;2022-09-09T06:01:01;94869.31;;;18.99;99.98
12785;BME280;6456;42.680;23.260;2022-09-09T06:03:28;94827.56;;;18.68;99.37
12785;BME280;6456;42.680;23.260;2022-09-09T06:05:59;94890.72;;;19.14;98.23
12785;BME280;6456;42.680;23.260;2022-09-09T06:08:26;94853.31;;;18.99;100.00
12785;BME280;6456;42.680;23.260;2022-09-09T06:11:01;94801.13;;;18.67;99.15
12785;BME280;6456;42.680;23.260;2022-09-09T06:13:28;94882.25;;;19.23;99.47
12785;BME280;6456;42.680;23.260;2022-09-09T06:15:55;94776.84;;;18.58;99.71
12785;BME280;6456;42.680;23.260;2022-09-09T06:18:23;94822.94;;;19.05;98.11
12785;BME280;6456;42.680;23.260;2022-09-09T06:20:55;94825.41;;;19.17;95.63
12785;BME280;6456;42.680;23.260;2022-09-09T06:23:22;94828.34;;;19.20;94.60
12785;BME280;6456;42.680;23.260;2022-09-09T06:25:49;94892.81;;;19.54;93.79
12785;BME280;6456;42.680;23.260;2022-09-09T06:28:18;94884.28;;;19.57;92.66
12785;BME280;6456;42.680;23.260;2022-09-09T06:30:45;94880.56;;;19.58;93.01
12785;BME280;6456;42.680;23.260;2022-09-09T06:33:13;94830.53;;;19.34;91.48
12785;BME280;6456;42.680;23.260;2022-09-09T06:35:40;94822.53;;;19.29;91.79
12785;BME280;6456;42.680;23.260;2022-09-09T06:38:07;94796.31;;;19.15;92.63
12785;BME280;6456;42.680;23.260;2022-09-09T06:40:34;94796.63;;;19.29;91.35
12785;BME280;6456;42.680;23.260;2022-09-09T06:43:03;94792.69;;;19.37;90.74
12785;BME280;6456;42.680;23.260;2022-09-09T06:45:35;94869.19;;;19.88;90.27
12785;BME280;6456;42.680;23.260;2022-09-09T06:48:02;94800.75;;;19.57;88.80
12785;BME280;6456;42.680;23.260;2022-09-09T06:50:29;94828.81;;;19.79;88.00
12785;BME280;6456;42.680;23.260;2022-09-09T06:52:56;94853.16;;;19.93;87.42
12785;BME280;6456;42.680;23.260;2022-09-09T06:55:23;94821.09;;;19.78;86.57
12785;BME280;6456;42.680;23.260;2022-09-09T06:57:50;94879.38;;;20.21;86.58
12785;BME280;6456;42.680;23.260;2022-09-09T07:00:17;94864.41;;;20.15;86.57
12785;BME280;6456;42.680;23.260;2022-09-09T07:02:45;94898.66;;;20.33;86.94
12785;BME280;6456;42.680;23.260;2022-09-09T07:05:12;94828.34;;;20.13;85.96
12785;BME280;6456;42.680;23.260;2022-09-09T07:07:40;94868.19;;;20.44;86.18
12785;BME280;6456;42.680;23.260;2022-09-09T07:10:08;94830.47;;;20.11;87.02
12785;BME280;6456;42.680;23.260;2022-09-09T07:12:35;94815.03;;;20.23;85.51
12785;BME280;6456;42.680;23.260;2022-09-09T07:15:03;94874.63;;;20.69;84.56
12785;BME280;6456;42.680;23.260;2022-09-09T07:17:30;94858.81;;;20.62;83.61
12785;BME280;6456;42.680;23.260;2022-09-09T07:19:59;94882.59;;;20.99;82.71
12785;BME280;6456;42.680;23.260;2022-09-09T07:22:27;94831.81;;;20.79;83.06
12785;BME280;6456;42.680;23.260;2022-09-09T07:24:54;94826.47;;;20.79;82.20
12785;BME280;6456;42.680;23.260;2022-09-09T07:27:21;94855.84;;;21.04;81.95
12785;BME280;6456;42.680;23.260;2022-09-09T07:29:48;94864.13;;;21.13;81.75
12785;BME280;6456;42.680;23.260;2022-09-09T07:32:15;94825.09;;;21.06;81.47
12785;BME280;6456;42.680;23.260;2022-09-09T07:34:42;94850.94;;;21.41;79.80
12785;BME280;6456;42.680;23.260;2022-09-09T07:37:10;94860.53;;;21.47;79.20
12785;BME280;6456;42.680;23.260;2022-09-09T07:39:38;94834.38;;;21.34;78.82
12785;BME280;6456;42.680;23.260;2022-09-09T07:42:06;94820.41;;;21.37;78.52
12785;BME280;6456;42.680;23.260;2022-09-09T07:44:35;94851.59;;;21.67;77.33
12785;BME280;6456;42.680;23.260;2022-09-09T07:47:02;94792.00;;;21.46;76.14
12785;BME280;6456;42.680;23.260;2022-09-09T07:49:29;94849.59;;;21.98;75.66
12785;BME280;6456;42.680;23.260;2022-09-09T07:51:57;94873.50;;;22.28;75.36
12785;BME280;6456;42.680;23.260;2022-09-09T07:54:26;94835.88;;;22.09;75.01
12785;BME280;6456;42.680;23.260;2022-09-09T07:56:53;94871.78;;;22.42;74.86
12785;BME280;6456;42.680;23.260;2022-09-09T07:59:20;94880.38;;;22.44;73.37
12785;BME280;6456;42.680;23.260;2022-09-09T08:01:49;94847.16;;;22.40;72.48
12785;BME280;6456;42.680;23.260;2022-09-09T08:04:20;94832.75;;;22.31;72.19
12785;BME280;6456;42.680;23.260;2022-09-09T08:06:48;94871.81;;;22.76;71.26
12785;BME280;6456;42.680;23.260;2022-09-09T08:09:16;94841.34;;;22.67;70.81
12785;BME280;6456;42.680;23.260;2022-09-09T08:11:44;94789.69;;;22.51;70.65
12785;BME280;6456;42.680;23.260;2022-09-09T08:14:12;94868.00;;;23.11;69.64
12785;BME280;6456;42.680;23.260;2022-09-09T08:16:41;94869.38;;;23.08;68.84
12785;BME280;6456;42.680;23.260;2022-09-09T08:19:08;94838.69;;;22.90;68.55
12785;BME280;6456;42.680;23.260;2022-09-09T08:21:38;94847.69;;;23.05;67.93
12785;BME280;6456;42.680;23.260;2022-09-09T08:24:06;94832.13;;;23.02;68.22
12785;BME280;6456;42.680;23.260;2022-09-09T08:26:34;94830.41;;;23.11;67.97
12785;BME280;6456;42.680;23.260;2022-09-09T08:29:05;94811.56;;;23.16;67.87
12785;BME280;6456;42.680;23.260;2022-09-09T08:31:34;94856.22;;;23.59;68.43
12785;BME280;6456;42.680;23.260;2022-09-09T08:34:02;94806.31;;;23.53;67.47
12785;BME280;6456;42.680;23.260;2022-09-09T08:36:32;94856.47;;;23.81;66.79
12785;BME280;6456;42.680;23.260;2022-09-09T08:39:00;94759.28;;;23.37;64.64
12785;BME280;6456;42.680;23.260;2022-09-09T08:42:09;94746.66;;;23.32;64.34
12785;BME280;6456;42.680;23.260;2022-09-09T08:50:39;94818.44;;;24.11;64.06
12785;BME280;6456;42.680;23.260;2022-09-09T08:53:11;94812.75;;;24.32;64.00
12785;BME280;6456;42.680;23.260;2022-09-09T08:55:45;94798.56;;;24.45;63.35
12785;BME280;6456;42.680;23.260;2022-09-09T08:58:15;94778.34;;;24.47;61.16
12785;BME280;6456;42.680;23.260;2022-09-09T09:01:09;94752.16;;;24.20;63.63
12785;BME280;6456;42.680;23.260;2022-09-09T09:03:47;94810.22;;;24.54;62.73
12785;BME280;6456;42.680;23.260;2022-09-09T09:06:26;94861.22;;;25.10;61.57
12785;BME280;6456;42.680;23.260;2022-09-09T09:09:18;94805.75;;;24.81;60.25
12785;BME280;6456;42.680;23.260;2022-09-09T09:11:53;94775.44;;;24.44;59.61
12785;BME280;6456;42.680;23.260;2022-09-09T09:14:22;94816.72;;;24.85;59.12
12785;BME280;6456;42.680;23.260;2022-09-09T09:16:54;94786.34;;;24.66;60.52
12785;BME280;6456;42.680;23.260;2022-09-09T09:19:23;94838.66;;;25.06;60.30
12785;BME280;6456;42.680;23.260;2022-09-09T09:21:54;94827.22;;;25.14;58.81
12785;BME280;6456;42.680;23.260;2022-09-09T09:24:27;94798.88;;;25.03;59.30
12785;BME280;6456;42.680;23.260;2022-09-09T09:26:58;94806.66;;;24.91;58.08
12785;BME280;6456;42.680;23.260;2022-09-09T09:29:27;94835.59;;;25.26;58.47
12785;BME280;6456;42.680;23.260;2022-09-09T09:31:58;94826.13;;;25.28;59.18
12785;BME280;6456;42.680;23.260;2022-09-09T09:34:28;94821.75;;;25.32;58.45
12785;BME280;6456;42.680;23.260;2022-09-09T09:36:56;94769.25;;;25.03;58.27
12785;BME280;6456;42.680;23.260;2022-09-09T09:39:26;94769.97;;;25.08;58.42
12785;BME280;6456;42.680;23.260;2022-09-09T09:41:54;94814.88;;;25.67;56.87
12785;BME280;6456;42.680;23.260;2022-09-09T09:44:24;94777.25;;;25.48;56.03
12785;BME280;6456;42.680;23.260;2022-09-09T09:46:52;94802.75;;;25.78;55.91
12785;BME280;6456;42.680;23.260;2022-09-09T09:49:21;94819.66;;;26.06;56.24
12785;BME280;6456;42.680;23.260;2022-09-09T09:51:49;94807.13;;;25.88;58.05
12785;BME280;6456;42.680;23.260;2022-09-09T09:54:22;94780.09;;;25.79;56.34
12785;BME280;6456;42.680;23.260;2022-09-09T09:56:53;94748.69;;;25.75;55.74
12785;BME280;6456;42.680;23.260;2022-09-09T09:59:32;94770.72;;;25.77;54.43
12785;BME280;6456;42.680;23.260;2022-09-09T10:02:13;94726.38;;;25.47;54.20
12785;BME280;6456;42.680;23.260;2022-09-09T10:04:42;94782.16;;;25.96;54.86
12785;BME280;6456;42.680;23.260;2022-09-09T10:07:11;94778.59;;;25.87;54.15
12785;BME280;6456;42.680;23.260;2022-09-09T10:09:38;94751.50;;;25.70;54.22
12785;BME280;6456;42.680;23.260;2022-09-09T10:12:14;94774.00;;;25.87;53.85
12785;BME280;6456;42.680;23.260;2022-09-09T10:14:49;94809.69;;;26.06;54.82
12785;BME280;6456;42.680;23.260;2022-09-09T10:17:22;94772.63;;;25.76;54.39
12785;BME280;6456;42.680;23.260;2022-09-09T10:20:13;94769.44;;;25.74;54.58
12785;BME280;6456;42.680;23.260;2022-09-09T10:22:49;94731.94;;;25.51;54.16
12785;BME280;6456;42.680;23.260;2022-09-09T10:25:29;94720.41;;;25.50;54.98
12785;BME280;6456;42.680;23.260;2022-09-09T10:28:23;94801.94;;;25.91;55.74
12785;BME280;6456;42.680;23.260;2022-09-09T10:31:02;94811.91;;;25.91;55.68
12785;BME280;6456;42.680;23.260;2022-09-09T10:34:04;94806.19;;;25.70;55.87
12785;BME280;6456;42.680;23.260;2022-09-09T10:36:44;94820.44;;;25.71;56.04
12785;BME280;6456;42.680;23.260;2022-09-09T10:39:25;94832.34;;;25.70;56.93
12785;BME280;6456;42.680;23.260;2022-09-09T10:42:03;94782.22;;;25.41;56.33
12785;BME280;6456;42.680;23.260;2022-09-09T10:47:38;94783.44;;;25.22;57.50
12785;BME280;6456;42.680;23.260;2022-09-09T10:50:36;94847.31;;;25.48;59.60
12785;BME280;6456;42.680;23.260;2022-09-09T10:53:14;94830.34;;;25.34;60.96
12785;BME280;6456;42.680;23.260;2022-09-09T10:56:06;94844.28;;;25.36;60.91
12785;BME280;6456;42.680;23.260;2022-09-09T10:58:40;94798.19;;;25.11;61.22
12785;BME280;6456;42.680;23.260;2022-09-09T11:01:14;94810.75;;;25.15;62.07
12785;BME280;6456;42.680;23.260;2022-09-09T11:03:51;94800.88;;;25.11;62.58
12785;BME280;6456;42.680;23.260;2022-09-09T11:06:24;94780.03;;;25.16;60.59
12785;BME280;6456;42.680;23.260;2022-09-09T11:08:55;94791.09;;;25.28;62.02
12785;BME280;6456;42.680;23.260;2022-09-09T11:11:29;94797.28;;;25.15;61.93
12785;BME280;6456;42.680;23.260;2022-09-09T11:14:02;94747.72;;;25.03;62.85
12785;BME280;6456;42.680;23.260;2022-09-09T11:16:38;94770.47;;;25.37;63.42
12785;BME280;6456;42.680;23.260;2022-09-09T11:19:14;94828.31;;;25.81;63.58
12785;BME280;6456;42.680;23.260;2022-09-09T11:21:46;94807.97;;;25.75;63.62
12785;BME280;6456;42.680;23.260;2022-09-09T11:24:19;94725.56;;;25.33;62.86
12785;BME280;6456;42.680;23.260;2022-09-09T11:26:54;94741.75;;;25.46;63.34
12785;BME280;6456;42.680;23.260;2022-09-09T11:29:53;94797.00;;;26.07;62.45
12785;BME280;6456;42.680;23.260;2022-09-09T11:32:39;94793.19;;;26.08;64.63
12785;BME280;6456;42.680;23.260;2022-09-09T11:38:15;94784.13;;;26.04;62.31
12785;BME280;6456;42.680;23.260;2022-09-09T11:40:44;94738.88;;;25.79;62.71
12785;BME280;6456;42.680;23.260;2022-09-09T11:43:13;94754.84;;;26.11;62.48
12785;BME280;6456;42.680;23.260;2022-09-09T11:45:42;94747.66;;;26.20;61.84
12785;BME280;6456;42.680;23.260;2022-09-09T11:48:23;94694.59;;;26.16;61.66
12785;BME280;6456;42.680;23.260;2022-09-09T11:50:57;94700.06;;;26.24;62.53
12785;BME280;6456;42.680;23.260;2022-09-09T11:53:25;94708.50;;;26.31;62.71
12785;BME280;6456;42.680;23.260;2022-09-09T11:56:13;94732.34;;;26.60;64.32
12785;BME280;6456;42.680;23.260;2022-09-09T11:58:54;94721.34;;;26.56;62.73
12785;BME280;6456;42.680;23.260;2022-09-09T12:01:35;94709.72;;;26.47;61.78
12785;BME280;6456;42.680;23.260;2022-09-09T12:04:21;94738.66;;;26.78;63.70
12785;BME280;6456;42.680;23.260;2022-09-09T12:06:56;94685.19;;;26.57;62.35
12785;BME280;6456;42.680;23.260;2022-09-09T12:09:41;94659.25;;;26.48;63.35
12785;BME280;6456;42.680;23.260;2022-09-09T12:12:29;94681.41;;;26.75;61.35
12785;BME280;6456;42.680;23.260;2022-09-09T12:17:47;94685.34;;;26.92;59.63
12785;BME280;6456;42.680;23.260;2022-09-09T12:20:17;94719.91;;;27.29;59.31
12785;BME280;6456;42.680;23.260;2022-09-09T12:23:01;94700.06;;;27.25;59.37
12785;BME280;6456;42.680;23.260;2022-09-09T12:25:39;94646.63;;;27.05;58.20
12785;BME280;6456;42.680;23.260;2022-09-09T12:28:16;94683.44;;;27.40;58.64
12785;BME280;6456;42.680;23.260;2022-09-09T12:30:51;94627.56;;;27.10;57.83
12785;BME280;6456;42.680;23.260;2022-09-09T12:33:22;94680.41;;;27.50;56.29
12785;BME280;6456;42.680;23.260;2022-09-09T12:35:53;94638.06;;;27.28;55.48
12785;BME280;6456;42.680;23.260;2022-09-09T12:38:29;94680.09;;;27.60;55.52
12785;BME280;6456;42.680;23.260;2022-09-09T12:40:58;94653.34;;;27.33;56.37
12785;BME280;6456;42.680;23.260;2022-09-09T12:43:28;94658.75;;;27.33;55.85
12785;BME280;6456;42.680;23.260;2022-09-09T12:45:57;94674.03;;;27.46;55.76
12785;BME280;6456;42.680;23.260;2022-09-09T12:48:33;94706.00;;;27.78;53.67
12785;BME280;6456;42.680;23.260;2022-09-09T12:51:03;94657.19;;;27.49;54.33
12785;BME280;6456;42.680;23.260;2022-09-09T12:53:34;94643.84;;;27.44;55.33
12785;BME280;6456;42.680;23.260;2022-09-09T12:56:03;94707.47;;;27.84;55.34
12785;BME280;6456;42.680;23.260;2022-09-09T12:58:36;94689.00;;;27.86;54.64
12785;BME280;6456;42.680;23.260;2022-09-09T13:01:04;94660.38;;;27.51;55.83
12785;BME280;6456;42.680;23.260;2022-09-09T13:03:33;94620.28;;;27.27;55.90
12785;BME280;6456;42.680;23.260;2022-09-09T13:06:11;94643.94;;;27.22;56.39
12785;BME280;6456;42.680;23.260;2022-09-09T13:08:41;94605.06;;;26.75;57.92
12785;BME280;6456;42.680;23.260;2022-09-09T13:11:13;94679.69;;;27.19;58.15
12785;BME280;6456;42.680;23.260;2022-09-09T13:13:53;94644.84;;;26.92;59.27
12785;BME280;6456;42.680;23.260;2022-09-09T13:16:24;94679.34;;;27.12;59.55
12785;BME280;6456;42.680;23.260;2022-09-09T13:18:52;94668.69;;;27.07;60.01
12785;BME280;6456;42.680;23.260;2022-09-09T13:21:31;94664.25;;;27.11;59.60
12785;BME280;6456;42.680;23.260;2022-09-09T13:23:59;94611.47;;;26.88;58.25
12785;BME280;6456;42.680;23.260;2022-09-09T13:26:28;94645.53;;;27.14;57.84
12785;BME280;6456;42.680;23.260;2022-09-09T13:29:09;94555.97;;;26.64;58.03
12785;BME280;6456;42.680;23.260;2022-09-09T13:31:43;94635.53;;;27.15;58.35
12785;BME280;6456;42.680;23.260;2022-09-09T13:34:11;94643.84;;;27.44;57.60
12785;BME280;6456;42.680;23.260;2022-09-09T13:36:40;94644.94;;;27.52;57.24